Time;durP1;ratioP1;P1;durP2;ratioP2;P2;SDS_P1;SDS_P2;PMS_P1;PMS_P2;Temp;Humidity;BMP_temperature;BMP_pressure;BME280_temperature;BME280_humidity;BME280_pressure;Samples;Min_cycle;Max_cycle;Signal;HPM_P1;HPM_P2
2022/09/13 00:00:58;;;;;;;0.20;0.20;;;;;;;16.43;100.00;99537.19;7388432;19;20039;-63
2022/09/13 00:03:24;;;;;;;0.10;0.10;;;;;;;16.44;100.00;99527.44;7390385;19;20013;-63
2022/09/13 00:05:51;;;;;;;0.10;0.00;;;;;;;16.37;100.00;99522.41;7394503;19;20070;-63
2022/09/13 00:08:17;;;;;;;0.25;0.25;;;;;;;16.31;100.00;99524.50;7391263;19;20759;-62
2022/09/13 00:10:44;;;;;;;0.75;0.52;;;;;;;16.28;100.00;99524.78;7391128;19;20526;-63
2022/09/13 00:13:12;;;;;;;0.10;0.10;;;;;;;16.24;100.00;99513.06;7390029;19;20022;-63
2022/09/13 00:15:47;;;;;;;0.30;0.20;;;;;;;16.19;100.00;99517.44;7393604;19;20014;-63
2022/09/13 00:18:14;;;;;;;0.85;0.60;;;;;;;16.20;100.00;99516.16;7390535;19;20021;-63
2022/09/13 00:20:40;;;;;;;0.45;0.45;;;;;;;16.18;100.00;99523.56;7389143;19;20354;-63
2022/09/13 00:23:07;;;;;;;0.10;0.10;;;;;;;16.12;100.00;99531.28;7391411;19;20006;-63
2022/09/13 00:25:33;;;;;;;0.25;0.25;;;;;;;15.96;100.00;99526.56;7392531;19;20018;-63
2022/09/13 00:28:00;;;;;;;1.42;0.55;;;;;;;15.97;100.00;99523.22;7389673;19;20014;-63
2022/09/13 00:30:26;;;;;;;0.13;0.13;;;;;;;16.07;100.00;99530.03;7389343;19;20019;-63
2022/09/13 00:32:52;;;;;;;0.25;0.10;;;;;;;16.14;100.00;99537.13;7385932;19;20014;-63
2022/09/13 00:35:18;;;;;;;0.28;0.22;;;;;;;16.18;100.00;99537.63;7391382;19;20018;-63
2022/09/13 00:37:45;;;;;;;1.95;0.20;;;;;;;16.16;100.00;99545.81;7388693;19;20021;-63
2022/09/13 00:40:11;;;;;;;0.15;0.15;;;;;;;16.11;100.00;99533.34;7387919;19;20038;-63
2022/09/13 00:42:37;;;;;;;0.45;0.40;;;;;;;15.68;100.00;99535.88;7389325;19;20024;-63
2022/09/13 00:45:16;;;;;;;0.40;0.30;;;;;;;15.93;100.00;99533.97;7394669;19;20021;-63
2022/09/13 00:47:59;;;;;;;1.75;0.73;;;;;;;15.94;100.00;99524.25;7389701;19;20459;-63
2022/09/13 00:50:36;;;;;;;0.45;0.35;;;;;;;16.02;100.00;99524.47;7389866;19;20492;-63
2022/09/13 00:53:21;;;;;;;1.13;0.43;;;;;;;15.89;100.00;99522.25;7389609;19;20035;-63
2022/09/13 00:55:57;;;;;;;0.73;0.20;;;;;;;15.75;100.00;99526.16;7393727;19;20019;-63
2022/09/13 00:58:35;;;;;;;0.20;0.20;;;;;;;15.66;100.00;99526.44;7388557;19;20679;-63
2022/09/13 01:01:06;;;;;;;0.22;0.20;;;;;;;15.52;100.00;99528.31;7387836;19;20011;-63
2022/09/13 01:03:34;;;;;;;0.13;0.13;;;;;;;15.38;100.00;99522.97;7389400;19;20022;-63
2022/09/13 01:06:08;;;;;;;0.28;0.20;;;;;;;15.25;100.00;99514.34;7394215;19;20028;-63
2022/09/13 01:08:37;;;;;;;0.20;0.20;;;;;;;15.18;100.00;99516.44;7389336;19;20086;-63
2022/09/13 01:11:10;;;;;;;0.20;0.20;;;;;;;15.12;100.00;99503.69;7388947;19;20021;-63
2022/09/13 01:13:38;;;;;;;0.98;0.57;;;;;;;15.03;100.00;99513.16;7390454;19;20010;-63
2022/09/13 01:16:04;;;;;;;0.20;0.20;;;;;;;14.77;100.00;99509.91;7393409;19;20014;-63
2022/09/13 01:18:31;;;;;;;0.73;0.73;;;;;;;14.86;100.00;99512.44;7388743;19;20062;-63
2022/09/13 01:21:18;;;;;;;0.20;0.20;;;;;;;14.86;100.00;99506.06;7386981;19;20364;-63
2022/09/13 01:23:50;;;;;;;0.45;0.45;;;;;;;14.89;100.00;99507.84;7391568;19;20018;-63
2022/09/13 01:26:39;;;;;;;0.43;0.43;;;;;;;14.98;100.00;99497.13;7388823;19;20010;-63
2022/09/13 01:29:27;;;;;;;4.07;0.50;;;;;;;15.05;100.00;99502.19;7388840;19;20019;-63
2022/09/13 01:32:07;;;;;;;1.98;0.15;;;;;;;15.11;100.00;99505.75;7388847;19;20047;-63
2022/09/13 01:34:41;;;;;;;0.10;0.10;;;;;;;15.02;100.00;99508.06;7388022;19;20006;-63
2022/09/13 01:37:44;;;;;;;0.45;0.45;;;;;;;15.05;100.00;99502.19;7388296;19;20353;-63
2022/09/13 01:40:42;;;;;;;0.32;0.32;;;;;;;15.06;100.00;99506.53;7388682;19;20589;-63
2022/09/13 01:43:34;;;;;;;0.43;0.40;;;;;;;14.86;100.00;99515.25;7387204;19;20487;-63
2022/09/13 01:46:05;;;;;;;0.22;0.20;;;;;;;14.83;100.00;99507.88;7399594;19;20355;-63
2022/09/13 01:48:48;;;;;;;8.33;0.67;;;;;;;14.65;100.00;99514.03;7395551;19;20014;-63
2022/09/13 01:51:25;;;;;;;0.32;0.30;;;;;;;14.73;100.00;99503.81;7395081;19;20014;-63
2022/09/13 01:53:57;;;;;;;0.20;0.20;;;;;;;14.67;100.00;99511.47;7395395;19;20035;-63
2022/09/13 01:56:36;;;;;;;0.32;0.32;;;;;;;14.76;100.00;99511.19;7395724;19;20010;-63
2022/09/13 01:59:15;;;;;;;3.63;0.30;;;;;;;14.68;100.00;99515.81;7395317;19;20019;-63
2022/09/13 02:01:55;;;;;;;0.10;0.10;;;;;;;14.46;100.00;99513.03;7392596;19;20508;-63
2022/09/13 02:04:26;;;;;;;0.10;0.10;;;;;;;14.41;100.00;99511.75;7395956;19;20031;-63
2022/09/13 02:07:02;;;;;;;0.28;0.22;;;;;;;14.30;100.00;99520.16;7395008;19;20018;-63
2022/09/13 02:09:35;;;;;;;0.60;0.50;;;;;;;14.30;100.00;99527.78;7394709;19;20018;-63
2022/09/13 02:12:12;;;;;;;0.20;0.20;;;;;;;14.42;100.00;99524.47;7393780;19;20014;-63
2022/09/13 02:14:43;;;;;;;0.40;0.40;;;;;;;14.67;100.00;99528.28;7397917;19;20023;-63
2022/09/13 02:17:14;;;;;;;0.30;0.30;;;;;;;14.74;100.00;99532.59;7394741;19;20010;-63
2022/09/13 02:19:47;;;;;;;1.35;0.35;;;;;;;14.53;100.00;99528.56;7393918;19;20018;-63
2022/09/13 02:22:20;;;;;;;3.50;0.75;;;;;;;14.60;100.00;99522.41;7391850;19;20010;-63
2022/09/13 02:24:53;;;;;;;3.95;0.30;;;;;;;14.59;100.00;99527.28;7396040;19;20035;-63
2022/09/13 02:27:24;;;;;;;0.38;0.38;;;;;;;14.56;100.00;99528.28;7395069;19;20021;-63
2022/09/13 02:29:53;;;;;;;;;;;;;;;14.30;100.00;99528.56;7394562;19;20048;-63
2022/09/13 02:32:31;;;;;;;1.38;0.40;;;;;;;14.26;100.00;99527.25;7393293;19;19922;-63
2022/09/13 02:35:04;;;;;;;0.30;0.30;;;;;;;14.26;100.00;99525.22;7396037;19;20018;-63
2022/09/13 02:37:35;;;;;;;6.72;0.60;;;;;;;14.33;100.00;99526.78;7394264;19;20014;-63
2022/09/13 02:40:06;;;;;;;3.87;0.30;;;;;;;14.42;100.00;99527.28;7394170;19;20014;-63
2022/09/13 02:42:42;;;;;;;0.77;0.57;;;;;;;14.44;100.00;99532.38;7394100;19;20019;-63
2022/09/13 02:45:12;;;;;;;0.20;0.20;;;;;;;14.42;100.00;99527.28;7398403;19;20011;-63
2022/09/13 02:47:56;;;;;;;0.90;0.40;;;;;;;14.40;100.00;99526.28;7393699;19;20018;-63
2022/09/13 02:50:57;;;;;;;0.30;0.30;;;;;;;14.42;100.00;99534.94;7393672;19;20014;-63
2022/09/13 02:53:26;;;;;;;0.30;0.15;;;;;;;14.38;100.00;99531.59;7395204;19;20011;-63
2022/09/13 02:56:20;;;;;;;0.57;0.50;;;;;;;14.19;100.00;99544.56;7396593;19;20105;-63
2022/09/13 02:59:10;;;;;;;1.35;0.82;;;;;;;14.11;100.00;99540.72;7394324;19;20014;-63
2022/09/13 03:01:39;;;;;;;0.17;0.17;;;;;;;14.13;100.00;99540.97;7392216;19;20007;-62
2022/09/13 03:04:06;;;;;;;0.65;0.25;;;;;;;14.11;100.00;99543.53;7392908;19;20006;-63
2022/09/13 03:06:32;;;;;;;0.40;0.30;;;;;;;14.12;100.00;99534.63;7392653;19;20014;-63
2022/09/13 03:09:02;;;;;;;0.65;0.20;;;;;;;14.15;100.00;99535.63;7392411;19;20352;-63
2022/09/13 03:11:40;;;;;;;0.55;0.20;;;;;;;14.02;100.00;99530.53;7393448;19;20031;-63
2022/09/13 03:14:22;;;;;;;0.20;0.20;;;;;;;14.05;100.00;99532.34;7395186;19;20471;-63
2022/09/13 03:17:03;;;;;;;9.40;0.40;;;;;;;14.03;100.00;99526.47;7392399;19;20014;-63
2022/09/13 03:19:47;;;;;;;;;;;;;;;14.01;100.00;99528.25;7393361;19;20031;-63
2022/09/13 03:22:44;;;;;;;0.60;0.57;;;;;;;14.04;100.00;99521.63;7390800;19;20261;-63
2022/09/13 03:25:44;;;;;;;0.30;0.30;;;;;;;14.07;100.00;99527.00;7392353;19;20039;-63
2022/09/13 03:28:28;;;;;;;0.40;0.40;;;;;;;14.03;100.00;99514.50;7390574;19;20011;-63
2022/09/13 03:31:35;;;;;;;0.57;0.20;;;;;;;13.96;100.00;99526.19;7392732;19;20665;-63
2022/09/13 03:34:13;;;;;;;0.50;0.50;;;;;;;13.89;100.00;99526.69;7392867;19;20015;-63
2022/09/13 03:37:15;;;;;;;0.55;0.22;;;;;;;13.87;100.00;99526.44;7391929;19;20011;-63
2022/09/13 03:39:51;;;;;;;0.30;0.30;;;;;;;13.84;100.00;99535.88;7390751;19;20089;-63
2022/09/13 03:42:26;;;;;;;1.20;0.28;;;;;;;13.88;100.00;99533.56;7389644;19;20037;-63
2022/09/13 03:44:55;;;;;;;0.20;0.20;;;;;;;13.87;100.00;99534.84;7396167;19;20010;-63
2022/09/13 03:47:25;;;;;;;0.30;0.30;;;;;;;13.89;100.00;99532.28;7391020;19;20011;-63
2022/09/13 03:49:52;;;;;;;0.50;0.40;;;;;;;13.94;100.00;99542.75;7391899;19;20015;-63
2022/09/13 03:52:19;;;;;;;0.17;0.15;;;;;;;13.97;100.00;99544.53;7390653;19;20587;-63
2022/09/13 03:54:45;;;;;;;0.43;0.30;;;;;;;13.94;100.00;99537.91;7393130;19;20003;-63
2022/09/13 03:57:16;;;;;;;0.40;0.40;;;;;;;13.90;100.00;99545.81;7391272;19;20015;-63
2022/09/13 03:59:48;;;;;;;1.58;0.80;;;;;;;13.86;100.00;99544.53;7391410;19;20011;-63
2022/09/13 04:02:16;;;;;;;0.15;0.15;;;;;;;13.77;100.00;99553.13;7389292;19;20027;-63
2022/09/13 04:04:44;;;;;;;0.20;0.20;;;;;;;13.75;100.00;99550.09;7391524;19;20014;-63
2022/09/13 04:07:13;;;;;;;0.20;0.20;;;;;;;13.71;100.00;99547.50;7387697;19;20131;-63
2022/09/13 04:09:39;;;;;;;0.65;0.50;;;;;;;13.64;100.00;99554.34;7391604;19;20021;-63
2022/09/13 04:12:05;;;;;;;0.77;0.20;;;;;;;13.59;100.00;99549.53;7391566;19;20014;-63
2022/09/13 04:14:32;;;;;;;0.20;0.20;;;;;;;13.53;100.00;99551.53;7394720;19;20082;-63
2022/09/13 04:16:58;;;;;;;0.20;0.20;;;;;;;13.48;100.00;99546.69;7388054;19;20018;-63
2022/09/13 04:19:25;;;;;;;0.10;0.10;;;;;;;13.69;100.00;99548.03;7390463;19;20479;-64
2022/09/13 04:21:52;;;;;;;0.10;0.10;;;;;;;13.82;100.00;99538.41;7389366;19;20403;-63
2022/09/13 04:24:19;;;;;;;0.40;0.32;;;;;;;13.87;100.00;99544.00;7394499;19;20086;-63
2022/09/13 04:26:50;;;;;;;1.10;0.70;;;;;;;13.81;100.00;99548.06;7389166;19;20011;-64
2022/09/13 04:29:17;;;;;;;3.10;0.43;;;;;;;13.80;100.00;99535.31;7390836;19;20048;-63
2022/09/13 04:31:44;;;;;;;0.10;0.10;;;;;;;13.85;100.00;99531.78;7390422;19;20019;-63
2022/09/13 04:34:10;;;;;;;0.20;0.20;;;;;;;13.92;100.00;99525.69;7389675;19;20011;-63
2022/09/13 04:36:36;;;;;;;0.55;0.47;;;;;;;13.90;100.00;99522.63;7390895;19;20035;-63
2022/09/13 04:39:03;;;;;;;0.10;0.10;;;;;;;13.85;100.00;99526.19;7390730;19;20010;-63
2022/09/13 04:41:30;;;;;;;3.97;0.52;;;;;;;13.79;100.00;99525.41;7388884;19;20111;-63
2022/09/13 04:43:57;;;;;;;0.52;0.20;;;;;;;13.71;100.00;99527.91;7392382;19;20010;-63
2022/09/13 04:46:23;;;;;;;0.65;0.40;;;;;;;13.67;100.00;99533.78;7389598;19;20010;-63
2022/09/13 04:48:50;;;;;;;1.42;0.47;;;;;;;13.72;100.00;99534.28;7390053;19;20026;-63
2022/09/13 04:51:17;;;;;;;1.15;0.50;;;;;;;13.65;100.00;99539.13;7390292;19;20014;-63
2022/09/13 04:53:54;;;;;;;0.17;0.17;;;;;;;13.69;100.00;99536.81;7388593;19;20011;-63
2022/09/13 04:56:22;;;;;;;0.20;0.20;;;;;;;13.79;100.00;99539.41;7389223;19;20430;-63
2022/09/13 04:58:52;;;;;;;0.20;0.20;;;;;;;13.87;100.00;99534.84;7388795;19;20014;-64
2022/09/13 05:01:19;;;;;;;0.20;0.20;;;;;;;13.75;100.00;99539.66;7388789;19;20376;-63
2022/09/13 05:03:45;;;;;;;0.50;0.30;;;;;;;13.62;100.00;99542.91;7389715;19;20011;-63
2022/09/13 05:06:14;;;;;;;0.10;0.10;;;;;;;13.60;100.00;99534.25;7392971;19;20070;-63
2022/09/13 05:08:40;;;;;;;0.30;0.30;;;;;;;13.55;100.00;99532.22;7389001;19;20035;-63
2022/09/13 05:11:07;;;;;;;0.15;0.15;;;;;;;13.38;100.00;99522.97;7387408;19;20015;-63
2022/09/13 05:13:34;;;;;;;0.10;0.10;;;;;;;13.28;100.00;99524.47;7390533;19;20036;-63
2022/09/13 05:16:05;;;;;;;6.13;0.47;;;;;;;13.17;100.00;99518.81;7393478;19;20065;-63
2022/09/13 05:18:34;;;;;;;0.38;0.32;;;;;;;13.10;100.00;99533.31;7390393;19;20011;-63
2022/09/13 05:21:02;;;;;;;0.60;0.20;;;;;;;13.12;100.00;99532.78;7395609;19;20096;-63
2022/09/13 05:23:30;;;;;;;1.48;0.28;;;;;;;13.16;100.00;99536.88;7399654;19;20014;-63
2022/09/13 05:25:58;;;;;;;0.93;0.40;;;;;;;13.22;100.00;99536.91;7400708;19;20353;-64
2022/09/13 05:32:25;;;;;;;0.85;0.85;;;;;;;12.58;100.00;99529.88;7416935;19;20373;-79
2022/09/13 05:34:51;;;;;;;0.40;0.40;;;;;;;12.80;100.00;99535.63;7423686;19;20066;-78
2022/09/13 05:37:17;;;;;;;0.47;0.47;;;;;;;12.89;100.00;99534.66;7416625;19;20029;-77
2022/09/13 05:39:43;;;;;;;0.10;0.10;;;;;;;13.01;100.00;99538.28;7425266;19;20044;-78
2022/09/13 05:42:09;;;;;;;0.20;0.20;;;;;;;13.16;100.00;99542.47;7419193;19;20018;-78
2022/09/13 05:44:35;;;;;;;0.20;0.20;;;;;;;13.17;100.00;99541.19;7421332;19;20018;-78
2022/09/13 05:47:01;;;;;;;0.25;0.25;;;;;;;12.93;100.00;99537.97;7421151;19;20106;-78
2022/09/13 05:49:28;;;;;;;0.40;0.40;;;;;;;12.85;100.00;99539.72;7418770;19;20085;-78
2022/09/13 05:51:54;;;;;;;0.30;0.30;;;;;;;12.78;100.00;99542.97;7422606;19;20102;-78
2022/09/13 05:54:20;;;;;;;0.30;0.30;;;;;;;12.87;100.00;99539.97;7421963;19;20018;-77
2022/09/13 05:56:46;;;;;;;0.30;0.30;;;;;;;12.91;100.00;99543.31;7421786;19;20014;-77
2022/09/13 05:59:16;;;;;;;0.30;0.30;;;;;;;12.81;100.00;99531.56;7419580;19;20018;-77
2022/09/13 06:01:42;;;;;;;2.47;0.47;;;;;;;12.86;100.00;99539.22;7421558;19;20035;-77
2022/09/13 06:04:08;;;;;;;0.20;0.20;;;;;;;12.83;100.00;99534.63;7420795;19;20031;-78
2022/09/13 06:06:34;;;;;;;0.10;0.10;;;;;;;12.87;100.00;99539.97;7419739;19;20025;-77
2022/09/13 06:09:01;;;;;;;1.88;0.32;;;;;;;12.86;100.00;99544.06;7419916;19;20018;-77
2022/09/13 06:11:27;;;;;;;0.50;0.50;;;;;;;12.84;100.00;99541.75;7417568;19;20436;-78
2022/09/13 06:13:53;;;;;;;0.30;0.30;;;;;;;12.85;100.00;99548.09;7420063;19;20030;-77
2022/09/13 06:16:20;;;;;;;0.20;0.20;;;;;;;12.86;100.00;99550.38;7419928;19;20025;-78
2022/09/13 06:18:46;;;;;;;0.73;0.60;;;;;;;12.90;100.00;99550.19;7419496;19;20035;-77
2022/09/13 06:21:17;;;;;;;0.73;0.63;;;;;;;12.93;100.00;99557.53;7419329;19;20011;-78
2022/09/13 06:23:49;;;;;;;0.98;0.40;;;;;;;12.92;100.00;99564.41;7419631;19;20353;-77
2022/09/13 06:26:17;;;;;;;1.17;0.60;;;;;;;12.91;100.00;99558.06;7419599;19;20746;-78
2022/09/13 06:28:51;;;;;;;2.53;0.45;;;;;;;12.82;100.00;99560.28;7424272;19;20708;-77
2022/09/13 06:31:19;;;;;;;2.22;0.57;;;;;;;12.74;100.00;99559.19;7417650;19;20018;-77
2022/09/13 06:33:46;;;;;;;0.30;0.30;;;;;;;12.75;100.00;99555.16;7420124;19;20031;-78
2022/09/13 06:36:16;;;;;;;0.32;0.32;;;;;;;13.08;100.00;99555.38;7426177;19;20118;-77
2022/09/13 06:38:44;;;;;;;0.88;0.88;;;;;;;13.35;100.00;99557.56;7418197;19;20018;-77
2022/09/13 06:41:22;;;;;;;0.65;0.45;;;;;;;13.38;100.00;99559.34;7419547;19;20082;-78
2022/09/13 06:43:53;;;;;;;2.25;0.45;;;;;;;13.60;100.00;99556.63;7391133;19;20384;-77
2022/09/13 06:46:20;;;;;;;0.70;0.70;;;;;;;13.62;100.00;99559.69;7391633;19;20010;-78
2022/09/13 06:48:47;;;;;;;0.82;0.80;;;;;;;13.69;100.00;99556.41;7393581;19;20018;-78
2022/09/13 06:51:18;;;;;;;0.98;0.93;;;;;;;13.86;100.00;99566.91;7388391;19;20480;-77
2022/09/13 06:53:47;;;;;;;3.35;0.75;;;;;;;14.12;100.00;99562.63;7389971;19;20045;-78
2022/09/13 06:56:16;;;;;;;1.00;0.82;;;;;;;14.41;100.00;99567.78;7393711;19;20033;-77
2022/09/13 06:58:44;;;;;;;0.85;0.85;;;;;;;14.55;100.00;99565.25;7389775;19;20022;-76
2022/09/13 07:01:14;;;;;;;1.67;0.85;;;;;;;14.61;100.00;99555.56;7391896;19;20401;-78
2022/09/13 07:03:42;;;;;;;0.60;0.60;;;;;;;14.70;100.00;99555.31;7389393;19;20018;-78
2022/09/13 07:06:13;;;;;;;0.65;0.60;;;;;;;14.72;100.00;99551.97;7394999;19;20027;-77
2022/09/13 07:08:41;;;;;;;;;;;;;;;14.89;100.00;99545.06;7390695;19;20717;-77
2022/09/13 07:11:08;;;;;;;0.60;0.50;;;;;;;14.67;100.00;99550.72;7391988;19;19919;-78
2022/09/13 07:13:35;;;;;;;1.23;0.55;;;;;;;14.57;100.00;99549.44;7393526;19;20051;-78
2022/09/13 07:16:06;;;;;;;2.47;0.68;;;;;;;14.93;100.00;99551.19;7395786;19;20022;-78
2022/09/13 07:18:32;;;;;;;;;;;;;;;15.06;100.00;99542.22;7388460;19;20510;-78
2022/09/13 07:21:00;;;;;;;0.50;0.50;;;;;;;15.05;100.00;99538.66;7386588;19;19914;-78
2022/09/13 07:23:27;;;;;;;1.95;0.35;;;;;;;15.14;100.00;99532.75;7388387;19;20052;-77
2022/09/13 07:25:54;;;;;;;0.40;0.40;;;;;;;15.47;100.00;99531.13;7389647;19;20041;-78
2022/09/13 07:28:21;;;;;;;1.25;1.15;;;;;;;15.51;100.00;99540.03;7390356;19;20034;-78
2022/09/13 07:30:47;;;;;;;1.40;0.75;;;;;;;15.54;100.00;99537.00;7389140;19;20019;-77
2022/09/13 07:33:13;;;;;;;0.82;0.82;;;;;;;15.56;100.00;99544.88;7391819;19;20093;-78
2022/09/13 07:35:39;;;;;;;0.47;0.47;;;;;;;15.66;100.00;99546.09;7392223;19;20018;-78
2022/09/13 07:38:05;;;;;;;2.28;0.65;;;;;;;15.82;100.00;99545.25;7390267;19;20014;-76
2022/09/13 07:40:34;;;;;;;0.63;0.35;;;;;;;15.99;100.00;99545.94;7389708;19;20019;-77
2022/09/13 07:43:01;;;;;;;1.08;0.85;;;;;;;16.01;100.00;99543.34;7386739;19;20024;-77
2022/09/13 07:45:27;;;;;;;3.92;1.00;;;;;;;16.06;100.00;99542.56;7391283;19;20034;-77
2022/09/13 07:47:54;;;;;;;0.77;0.45;;;;;;;15.95;100.00;99548.25;7390595;19;20014;-78
2022/09/13 07:50:21;;;;;;;0.25;0.25;;;;;;;16.17;100.00;99542.50;7393220;19;20046;-77
2022/09/13 07:52:47;;;;;;;1.20;0.30;;;;;;;16.17;100.00;99552.97;7394679;19;20014;-77
2022/09/13 07:55:13;;;;;;;0.63;0.63;;;;;;;16.27;100.00;99545.72;7389674;19;20039;-77
2022/09/13 07:57:39;;;;;;;1.98;0.52;;;;;;;16.37;100.00;99536.44;7391620;19;20018;-77
2022/09/13 08:00:06;;;;;;;10.40;0.60;;;;;;;16.55;100.00;99532.25;7395249;19;20040;-77
2022/09/13 08:02:37;;;;;;;0.30;0.28;;;;;;;16.58;100.00;99543.22;7393691;19;20025;-77
2022/09/13 08:05:04;;;;;;;0.35;0.35;;;;;;;16.57;100.00;99544.50;7389899;19;20015;-77
2022/09/13 08:07:31;;;;;;;2.25;0.30;;;;;;;16.78;100.00;99538.44;7394538;19;20014;-78
2022/09/13 08:09:58;;;;;;;0.22;0.10;;;;;;;16.94;100.00;99524.19;7389650;19;20566;-78
2022/09/13 08:12:24;;;;;;;0.20;0.20;;;;;;;16.88;100.00;99525.53;7387464;19;20393;-77
2022/09/13 08:14:50;;;;;;;1.13;0.32;;;;;;;16.93;100.00;99527.53;7391097;19;20034;-76
2022/09/13 08:17:16;;;;;;;0.20;0.20;;;;;;;17.01;100.00;99539.72;7387693;19;20011;-77
2022/09/13 08:19:42;;;;;;;0.30;0.20;;;;;;;16.99;100.00;99542.31;7388741;19;20026;-78
2022/09/13 08:22:08;;;;;;;0.30;0.30;;;;;;;17.18;100.00;99537.50;7388810;19;20022;-77
2022/09/13 08:24:34;;;;;;;0.10;0.10;;;;;;;17.18;100.00;99538.25;7390601;19;20388;-77
2022/09/13 08:27:00;;;;;;;2.55;0.73;;;;;;;17.32;100.00;99531.47;7391051;19;20018;-77
2022/09/13 08:29:27;;;;;;;2.50;0.30;;;;;;;17.39;100.00;99530.06;7390994;19;20113;-77
2022/09/13 08:31:53;;;;;;;0.82;0.47;;;;;;;17.16;100.00;99528.81;7387141;19;20021;-76
2022/09/13 08:34:20;;;;;;;5.45;1.08;;;;;;;17.33;100.00;99538.59;7390350;19;20037;-79
2022/09/13 08:36:46;;;;;;;0.85;0.55;;;;;;;17.69;100.00;99544.09;7388411;19;20021;-78
2022/09/13 08:39:12;;;;;;;1.30;0.50;;;;;;;17.96;100.00;99543.69;7385095;19;20015;-78
2022/09/13 08:41:43;;;;;;;0.40;0.40;;;;;;;17.87;100.00;99543.31;7387746;19;20385;-77
2022/09/13 08:44:28;;;;;;;0.88;0.52;;;;;;;18.19;100.00;99544.13;7389088;19;20006;-79
2022/09/13 08:47:29;;;;;;;2.42;0.57;;;;;;;18.22;100.00;99542.28;7386497;19;20587;-78
2022/09/13 08:50:17;;;;;;;0.38;0.38;;;;;;;18.52;100.00;99546.44;7386264;19;20014;-79
2022/09/13 08:52:54;;;;;;;0.40;0.10;;;;;;;18.72;100.00;99553.53;7386303;19;20014;-79
2022/09/13 08:55:55;;;;;;;4.63;0.43;;;;;;;18.83;100.00;99556.94;7388461;19;20114;-79
2022/09/13 08:58:37;;;;;;;8.07;0.35;;;;;;;18.93;100.00;99555.22;7386569;19;20026;-79
2022/09/13 09:01:31;;;;;;;1.52;0.70;;;;;;;19.07;100.00;99558.81;7387412;19;20018;-78
2022/09/13 09:04:09;;;;;;;3.50;0.55;;;;;;;18.70;100.00;99567.44;7387497;19;20015;-79
2022/09/13 09:06:35;;;;;;;0.10;0.03;;;;;;;18.85;100.00;99562.03;7384648;19;20571;-79
2022/09/13 09:09:06;;;;;;;0.13;0.10;;;;;;;18.99;100.00;99557.94;7383880;19;20484;-78
2022/09/13 09:11:40;;;;;;;4.75;0.35;;;;;;;19.12;100.00;99557.97;7383444;19;20022;-78
2022/09/13 09:14:11;;;;;;;1.75;0.77;;;;;;;19.17;100.00;99557.09;7386225;19;20022;-78
2022/09/13 09:16:47;;;;;;;0.10;0.10;;;;;;;19.31;100.00;99566.31;7385588;19;20039;-78
2022/09/13 09:19:34;;;;;;;2.15;0.43;;;;;;;19.70;100.00;99563.50;7385843;19;20038;-78
2022/09/13 09:22:10;;;;;;;7.30;0.20;;;;;;;19.58;100.00;99545.25;7385696;19;20010;-79
2022/09/13 09:24:39;;;;;;;0.70;0.30;;;;;;;19.81;100.00;99545.56;7388954;19;20025;-78
2022/09/13 09:27:14;;;;;;;0.10;0.10;;;;;;;19.88;100.00;99550.53;7386947;19;20026;-78
2022/09/13 09:29:45;;;;;;;0.57;0.57;;;;;;;19.99;100.00;99555.94;7382614;19;20022;-78
2022/09/13 09:32:11;;;;;;;3.10;0.65;;;;;;;20.29;100.00;99553.47;7386264;19;20516;-78
2022/09/13 09:34:55;;;;;;;1.75;0.22;;;;;;;20.12;100.00;99558.75;7388483;19;20022;-78
2022/09/13 09:37:25;;;;;;;0.10;0.10;;;;;;;20.07;100.00;99546.25;7386816;19;20101;-79
2022/09/13 09:39:57;;;;;;;5.33;1.20;;;;;;;20.25;100.00;99550.22;7385721;19;20022;-78
2022/09/13 09:42:27;;;;;;;0.20;0.20;;;;;;;20.58;100.00;99555.06;7384830;19;20022;-79
2022/09/13 09:45:01;;;;;;;0.00;0.00;;;;;;;20.82;100.00;99539.81;7388813;19;20018;-78
2022/09/13 09:47:32;;;;;;;5.03;0.10;;;;;;;20.94;100.00;99538.22;7384147;19;20022;-77
2022/09/13 09:50:16;;;;;;;0.00;0.00;;;;;;;20.89;100.00;99527.78;7384494;19;20021;-77
2022/09/13 09:53:25;;;;;;;0.15;0.15;;;;;;;20.90;100.00;99534.94;7386845;19;20026;-77
2022/09/13 09:55:59;;;;;;;0.30;0.20;;;;;;;20.95;100.00;99537.66;7384654;19;20409;-77
2022/09/13 09:58:40;;;;;;;0.10;0.10;;;;;;;21.02;100.00;99536.94;7384876;19;20480;-78
2022/09/13 10:01:32;;;;;;;;;;;;;;;21.08;100.00;99529.09;7385703;19;20018;-78
2022/09/13 10:04:03;;;;;;;0.10;0.10;;;;;;;20.94;100.00;99524.06;7384472;19;20592;-77
2022/09/13 10:06:31;;;;;;;0.20;0.20;;;;;;;20.70;100.00;99525.19;7384727;19;20551;-77
2022/09/13 10:09:04;;;;;;;0.13;0.10;;;;;;;20.49;100.00;99530.09;7384819;19;20027;-78
2022/09/13 10:11:56;;;;;;;0.10;0.00;;;;;;;20.48;100.00;99522.16;7381130;19;20573;-77
2022/09/13 10:14:33;;;;;;;0.00;0.00;;;;;;;20.79;100.00;99519.03;7386448;19;20060;-77
2022/09/13 10:17:15;;;;;;;5.20;0.47;;;;;;;20.92;100.00;99501.94;7386328;19;20026;-77
2022/09/13 10:20:10;;;;;;;7.32;0.47;;;;;;;20.92;100.00;99516.09;7386981;19;20017;-77
2022/09/13 10:22:37;;;;;;;2.65;0.30;;;;;;;20.70;100.00;99521.59;7387396;19;20022;-77
2022/09/13 10:25:35;;;;;;;3.60;0.32;;;;;;;20.67;100.00;99514.22;7389251;19;20015;-77
2022/09/13 10:28:05;;;;;;;6.03;0.43;;;;;;;20.98;100.00;99511.06;7392748;19;20015;-77
2022/09/13 10:30:52;;;;;;;0.30;0.10;;;;;;;21.12;100.00;99521.00;7388083;19;20453;-77
2022/09/13 10:33:27;;;;;;;1.70;0.17;;;;;;;21.30;100.00;99509.94;7392418;19;20019;-77
2022/09/13 10:35:58;;;;;;;0.13;0.10;;;;;;;21.37;100.00;99504.34;7392840;19;20086;-77
2022/09/13 10:38:36;;;;;;;0.00;0.00;;;;;;;21.31;100.00;99500.16;7389734;19;20029;-77
2022/09/13 10:41:07;;;;;;;0.10;0.03;;;;;;;21.50;100.00;99498.56;7392359;19;20467;-77
2022/09/13 10:43:34;;;;;;;0.10;0.10;;;;;;;21.49;100.00;99499.84;7392220;19;20018;-77
2022/09/13 10:46:04;;;;;;;0.77;0.15;;;;;;;21.44;100.00;99500.03;7395910;19;20024;-77
2022/09/13 10:48:45;;;;;;;0.10;0.10;;;;;;;21.44;100.00;99508.53;7389976;19;20025;-78
2022/09/13 10:51:36;;;;;;;0.17;0.15;;;;;;;21.47;100.00;99508.16;7390694;19;20018;-77
2022/09/13 10:54:19;;;;;;;0.10;0.10;;;;;;;21.51;100.00;99507.78;7391573;19;20026;-78
2022/09/13 10:56:47;;;;;;;3.88;0.32;;;;;;;21.49;100.00;99499.84;7389520;19;20006;-77
2022/09/13 10:59:22;;;;;;;0.30;0.20;;;;;;;21.50;100.00;99497.78;7389290;19;20469;-78
2022/09/13 11:02:09;;;;;;;0.10;0.10;;;;;;;21.59;100.00;99497.25;7393238;19;20046;-78
2022/09/13 11:04:44;;;;;;;0.10;0.00;;;;;;;21.66;100.00;99479.50;7393540;19;20022;-79
2022/09/13 11:07:31;;;;;;;6.60;0.30;;;;;;;21.76;100.00;99483.34;7392038;19;20031;-78
2022/09/13 11:10:13;;;;;;;0.30;0.00;;;;;;;21.77;100.00;99479.16;7392337;19;20022;-77
2022/09/13 11:12:50;;;;;;;0.55;0.30;;;;;;;21.83;100.00;99474.09;7391617;19;20819;-78
2022/09/13 11:15:28;;;;;;;0.45;0.20;;;;;;;21.78;100.00;99475.03;7397104;19;20077;-78
2022/09/13 11:17:54;;;;;;;0.35;0.08;;;;;;;21.70;100.00;99474.25;7393146;19;20015;-78
2022/09/13 11:20:35;;;;;;;4.82;0.73;;;;;;;21.68;100.00;99465.53;7392145;19;20029;-77
2022/09/13 11:23:28;;;;;;;0.10;0.00;;;;;;;21.81;100.00;99454.03;7392626;19;20026;-77
2022/09/13 11:26:25;;;;;;;0.40;0.20;;;;;;;21.89;100.00;99457.69;7391201;19;20385;-77
2022/09/13 11:28:57;;;;;;;0.10;0.00;;;;;;;22.09;100.00;99462.44;7391987;19;20051;-77
2022/09/13 11:31:42;;;;;;;6.40;0.47;;;;;;;22.16;100.00;99467.38;7392700;19;20041;-78
2022/09/13 11:34:48;;;;;;;0.40;0.10;;;;;;;22.32;100.00;99459.66;7394455;19;20134;-77
2022/09/13 11:37:59;;;;;;;0.13;0.10;;;;;;;22.49;100.00;99446.41;7393325;19;20038;-77
2022/09/13 11:40:30;;;;;;;;;;;;;;;22.57;100.00;99450.00;7389712;19;20015;-77
2022/09/13 11:43:02;;;;;;;0.47;0.20;;;;;;;22.63;100.00;99446.25;7388562;19;19962;-78
2022/09/13 11:45:34;;;;;;;1.77;0.20;;;;;;;22.73;100.00;99452.84;7391138;19;20505;-77
2022/09/13 11:48:19;;;;;;;0.00;0.00;;;;;;;22.76;100.00;99452.44;7392278;19;20014;-78
2022/09/13 11:51:08;;;;;;;0.52;0.20;;;;;;;22.57;100.00;99441.47;7392411;19;20010;-77
2022/09/13 11:54:00;;;;;;;0.65;0.10;;;;;;;22.44;100.00;99444.50;7392260;19;20014;-77
2022/09/13 11:56:33;;;;;;;0.10;0.00;;;;;;;22.24;100.00;99436.94;7389351;19;20014;-77
2022/09/13 11:59:44;;;;;;;0.00;0.00;;;;;;;22.10;100.00;99432.00;7388457;19;20043;-77